createdAt,value
2018-08-30T00:02:25.072Z,23.44
2018-08-30T00:04:53.097Z,23.44
2018-08-30T00:07:21.008Z,23.43
2018-08-30T00:09:48.659Z,23.42
2018-08-30T00:12:16.389Z,23.41
2018-08-30T00:14:44.355Z,23.41
2018-08-30T00:17:12.021Z,23.39
2018-08-30T00:19:39.663Z,23.37
2018-08-30T00:22:07.298Z,23.37
2018-08-30T00:24:35.625Z,23.36
2018-08-30T00:27:03.787Z,23.35
2018-08-30T00:29:31.393Z,23.32
2018-08-30T00:31:59.302Z,23.32
2018-08-30T00:34:27.385Z,23.30
2018-08-30T00:36:55.309Z,23.30
2018-08-30T00:39:22.993Z,23.29
2018-08-30T00:41:50.676Z,23.29
2018-08-30T00:44:18.277Z,23.29
2018-08-30T00:46:46.239Z,23.28
2018-08-30T00:49:13.917Z,23.27
2018-08-30T00:51:41.813Z,23.28
2018-08-30T00:54:09.811Z,23.27
2018-08-30T00:56:37.424Z,23.27
2018-08-30T00:59:05.393Z,23.26
2018-08-30T01:01:33.333Z,23.26
2018-08-30T01:04:01.255Z,23.25
2018-08-30T01:06:28.970Z,23.25
2018-08-30T01:08:56.716Z,23.24
2018-08-30T01:11:24.727Z,23.24
2018-08-30T01:13:52.630Z,23.23
2018-08-30T01:16:20.238Z,23.22
2018-08-30T01:18:48.361Z,23.22
2018-08-30T01:21:16.230Z,23.22
2018-08-30T01:23:43.917Z,23.22
2018-08-30T01:26:11.656Z,23.22
2018-08-30T01:28:39.349Z,23.22
2018-08-30T01:31:07.221Z,23.22
2018-08-30T01:33:34.931Z,23.20
2018-08-30T01:36:02.972Z,23.19
2018-08-30T01:38:30.728Z,23.19
2018-08-30T01:40:58.794Z,23.18
2018-08-30T01:43:26.521Z,23.16
2018-08-30T01:45:54.449Z,23.15
2018-08-30T01:48:22.620Z,23.14
2018-08-30T01:50:50.261Z,23.14
2018-08-30T01:53:18.057Z,23.12
2018-08-30T01:55:45.697Z,23.10
2018-08-30T01:58:13.348Z,23.10
2018-08-30T02:00:41.013Z,23.08
2018-08-30T02:03:08.934Z,23.07
2018-08-30T02:05:37.063Z,23.07
2018-08-30T02:08:04.716Z,23.07
2018-08-30T02:10:32.811Z,23.05
2018-08-30T02:13:00.417Z,23.03
2018-08-30T02:15:28.394Z,23.02
2018-08-30T02:17:56.122Z,23.01
2018-08-30T02:20:23.766Z,23.00
2018-08-30T02:22:51.468Z,23.00
2018-08-30T02:25:19.328Z,22.97
2018-08-30T02:27:46.928Z,22.96
2018-08-30T02:30:14.677Z,22.94
2018-08-30T02:32:42.312Z,22.93
2018-08-30T02:35:10.005Z,22.94
2018-08-30T02:37:37.910Z,22.94
2018-08-30T02:40:05.774Z,22.92
2018-08-30T02:42:33.450Z,22.91
2018-08-30T02:45:01.426Z,22.91
2018-08-30T02:47:29.220Z,22.91
2018-08-30T02:49:57.547Z,22.89
2018-08-30T02:52:25.285Z,22.91
2018-08-30T02:54:52.935Z,22.90
2018-08-30T02:57:20.894Z,22.90
2018-08-30T02:59:48.505Z,22.89
2018-08-30T03:02:16.499Z,22.90
2018-08-30T03:04:44.105Z,22.89
2018-08-30T03:07:11.917Z,22.87
2018-08-30T03:09:39.540Z,22.87
2018-08-30T03:12:07.476Z,22.86
2018-08-30T03:14:35.217Z,22.84
2018-08-30T03:17:02.914Z,22.84
2018-08-30T03:19:30.835Z,22.84
2018-08-30T03:21:58.553Z,22.83
2018-08-30T03:24:26.538Z,22.81
2018-08-30T03:26:54.585Z,22.82
2018-08-30T03:29:22.518Z,22.80
2018-08-30T03:31:50.165Z,22.79
2018-08-30T03:34:17.800Z,22.78
2018-08-30T03:36:45.441Z,22.76
2018-08-30T03:39:13.109Z,22.75
2018-08-30T03:41:40.741Z,22.73
2018-08-30T03:44:08.580Z,22.73
2018-08-30T03:46:36.203Z,22.72
2018-08-30T03:49:04.374Z,22.71
2018-08-30T03:51:32.054Z,22.71
2018-08-30T03:53:59.966Z,22.69
2018-08-30T03:56:27.603Z,22.70
2018-08-30T03:58:55.290Z,22.71
2018-08-30T04:01:24.023Z,22.70
2018-08-30T04:03:51.727Z,22.70
2018-08-30T04:06:19.378Z,22.71
2018-08-30T04:08:47.072Z,22.70
2018-08-30T04:11:14.749Z,22.69
2018-08-30T04:13:42.945Z,22.69
2018-08-30T04:16:11.174Z,22.68
2018-08-30T04:18:38.797Z,22.68
2018-08-30T04:21:06.775Z,22.68
2018-08-30T04:23:34.490Z,22.68
2018-08-30T04:26:02.764Z,22.66
2018-08-30T04:28:30.408Z,22.68
2018-08-30T04:30:58.296Z,22.67
2018-08-30T04:33:26.245Z,22.67
2018-08-30T04:35:53.825Z,22.67
2018-08-30T04:38:21.510Z,22.65
2018-08-30T04:40:49.384Z,22.65
2018-08-30T04:43:17.057Z,22.64
2018-08-30T04:45:45.229Z,22.63
2018-08-30T04:48:12.841Z,22.62
2018-08-30T04:50:40.618Z,22.61
2018-08-30T04:53:08.596Z,22.62
2018-08-30T04:55:36.859Z,22.61
2018-08-30T04:58:04.662Z,22.61
2018-08-30T05:00:33.603Z,22.59
2018-08-30T05:03:02.103Z,22.57
2018-08-30T05:05:30.078Z,22.55
2018-08-30T05:07:58.721Z,22.53
2018-08-30T05:10:26.460Z,22.53
2018-08-30T05:12:54.728Z,22.51
2018-08-30T05:15:22.718Z,22.50
2018-08-30T05:17:50.410Z,22.49
2018-08-30T05:20:18.037Z,22.48
2018-08-30T05:22:46.255Z,22.48
2018-08-30T05:25:13.949Z,22.47
2018-08-30T05:27:41.984Z,22.46
2018-08-30T05:30:09.858Z,22.46
2018-08-30T05:32:37.566Z,22.46
2018-08-30T05:35:05.657Z,22.45
2018-08-30T05:37:33.310Z,22.47
2018-08-30T05:40:01.031Z,22.46
2018-08-30T05:42:29.182Z,22.48
2018-08-30T05:44:57.206Z,22.50
2018-08-30T05:47:24.916Z,22.51
2018-08-30T05:49:52.594Z,22.53
2018-08-30T05:52:20.305Z,22.54
2018-08-30T05:54:48.009Z,22.56
2018-08-30T05:57:15.690Z,22.59
2018-08-30T05:59:43.685Z,22.60
2018-08-30T06:02:11.405Z,22.60
2018-08-30T06:04:39.093Z,22.61
2018-08-30T06:07:07.120Z,22.62
2018-08-30T06:09:35.670Z,22.64
2018-08-30T06:12:03.497Z,22.64
2018-08-30T06:14:31.116Z,22.66
2018-08-30T06:16:58.973Z,22.69
2018-08-30T06:19:26.718Z,22.71
2018-08-30T06:21:54.420Z,22.72
2018-08-30T06:24:22.067Z,22.71
2018-08-30T06:26:49.898Z,22.71
2018-08-30T06:29:17.625Z,22.58
2018-08-30T06:31:45.271Z,22.69
2018-08-30T06:34:13.277Z,22.69
2018-08-30T06:36:41.301Z,22.66
2018-08-30T06:39:09.199Z,22.64
2018-08-30T06:41:36.887Z,22.62
2018-08-30T06:44:04.556Z,22.60
2018-08-30T06:46:32.554Z,22.60
2018-08-30T06:49:00.508Z,22.61
2018-08-30T06:51:28.308Z,22.62
2018-08-30T06:53:56.300Z,22.63
2018-08-30T06:56:23.997Z,22.65
2018-08-30T06:58:51.864Z,22.65
2018-08-30T07:01:20.041Z,22.63
2018-08-30T07:03:47.715Z,22.61
2018-08-30T07:06:15.466Z,22.61
2018-08-30T07:08:43.092Z,22.59
2018-08-30T07:11:10.697Z,22.60
2018-08-30T07:13:38.701Z,22.61
2018-08-30T07:16:07.141Z,22.62
2018-08-30T07:18:34.821Z,22.64
2018-08-30T07:21:03.101Z,22.64
2018-08-30T07:23:31.335Z,22.63
2018-08-30T07:25:59.270Z,22.61
2018-08-30T07:28:27.298Z,22.61
2018-08-30T07:30:55.576Z,22.60
2018-08-30T07:33:23.526Z,22.59
2018-08-30T07:35:51.429Z,22.61
2018-08-30T07:38:19.106Z,22.65
2018-08-30T07:40:47.148Z,22.68
2018-08-30T07:43:14.792Z,22.70
2018-08-30T07:45:42.661Z,22.70
2018-08-30T07:48:10.874Z,22.71
2018-08-30T07:50:38.501Z,22.75
2018-08-30T07:53:06.807Z,22.76
2018-08-30T07:55:34.459Z,22.74
2018-08-30T07:58:02.157Z,22.71
2018-08-30T08:00:30.797Z,22.69
2018-08-30T08:02:58.829Z,22.69
2018-08-30T08:05:26.817Z,22.71
2018-08-30T08:07:54.554Z,22.73
2018-08-30T08:10:22.420Z,22.73
2018-08-30T08:12:50.124Z,22.74
2018-08-30T08:15:18.173Z,22.73
2018-08-30T08:17:46.306Z,22.74
2018-08-30T08:20:13.977Z,22.74
2018-08-30T08:22:42.269Z,22.73
2018-08-30T08:25:09.982Z,22.73
2018-08-30T08:27:37.657Z,22.78
2018-08-30T08:30:05.506Z,22.85
2018-08-30T08:32:33.109Z,22.85
2018-08-30T08:35:00.752Z,22.83
2018-08-30T08:37:28.808Z,22.81
2018-08-30T08:39:56.938Z,22.80
2018-08-30T08:42:24.662Z,22.78
2018-08-30T08:44:52.340Z,22.73
2018-08-30T08:47:20.030Z,22.70
2018-08-30T08:49:54.300Z,22.72
2018-08-30T08:52:22.509Z,22.74
2018-08-30T08:54:50.499Z,22.74
2018-08-30T08:57:18.427Z,22.73
2018-08-30T08:59:46.250Z,22.73
2018-08-30T09:02:14.205Z,22.76
2018-08-30T09:04:41.857Z,22.77
2018-08-30T09:07:09.896Z,22.78
2018-08-30T09:09:37.517Z,22.83
2018-08-30T09:12:05.225Z,22.83
2018-08-30T09:14:32.928Z,22.81
2018-08-30T09:17:00.530Z,22.79
2018-08-30T09:19:28.484Z,22.76
2018-08-30T09:21:56.260Z,22.73
2018-08-30T09:24:24.425Z,22.70
2018-08-30T09:26:52.707Z,22.68
2018-08-30T09:29:20.572Z,22.67
2018-08-30T09:31:48.222Z,22.68
2018-08-30T09:34:15.828Z,22.71
2018-08-30T09:36:43.503Z,22.75
2018-08-30T09:39:11.793Z,22.75
2018-08-30T09:41:39.438Z,22.76
2018-08-30T09:44:07.110Z,22.75
2018-08-30T09:46:34.817Z,22.69
2018-08-30T09:49:03.226Z,22.67
2018-08-30T09:51:30.877Z,22.68
2018-08-30T09:53:58.485Z,22.70
2018-08-30T09:56:26.746Z,22.75
2018-08-30T09:58:54.515Z,22.78
2018-08-30T10:01:27.679Z,22.75
2018-08-30T10:03:55.441Z,22.74
2018-08-30T10:06:23.040Z,22.77
2018-08-30T10:08:51.201Z,22.79
2018-08-30T10:11:19.207Z,22.80
2018-08-30T10:13:47.232Z,22.82
2018-08-30T10:16:15.143Z,22.85
2018-08-30T10:18:42.830Z,22.89
2018-08-30T10:21:11.009Z,22.93
2018-08-30T10:23:44.693Z,22.94
2018-08-30T10:26:12.881Z,22.92
2018-08-30T10:28:40.908Z,22.93
2018-08-30T10:31:09.183Z,22.95
2018-08-30T10:33:37.312Z,22.96
2018-08-30T10:36:05.031Z,22.96
2018-08-30T10:38:32.770Z,22.94
2018-08-30T10:41:00.708Z,22.89
2018-08-30T10:43:28.771Z,22.85
2018-08-30T10:45:57.053Z,22.83
2018-08-30T10:48:25.426Z,22.81
2018-08-30T10:50:53.282Z,22.79
2018-08-30T10:53:21.820Z,22.80
2018-08-30T10:55:49.721Z,22.85
2018-08-30T10:58:17.773Z,22.90
2018-08-30T11:00:45.644Z,22.94
2018-08-30T11:03:13.981Z,22.96
2018-08-30T11:05:41.894Z,23.02
2018-08-30T11:08:09.785Z,23.07
2018-08-30T11:10:37.869Z,23.13
2018-08-30T11:13:05.908Z,23.08
2018-08-30T11:15:33.767Z,23.05
2018-08-30T11:18:01.493Z,22.99
2018-08-30T11:20:29.520Z,22.92
2018-08-30T11:22:57.597Z,22.86
2018-08-30T11:25:25.551Z,22.86
2018-08-30T11:27:53.469Z,22.85
2018-08-30T11:30:21.668Z,22.82
2018-08-30T11:32:49.856Z,22.78
2018-08-30T11:35:17.774Z,22.73
2018-08-30T11:37:45.890Z,22.69
2018-08-30T11:40:13.967Z,22.67
2018-08-30T11:42:41.935Z,22.66
2018-08-30T11:45:10.019Z,22.63
2018-08-30T11:47:38.221Z,22.61
2018-08-30T11:50:06.092Z,22.58
2018-08-30T11:52:33.853Z,22.58
2018-08-30T11:55:02.119Z,22.64
2018-08-30T11:57:29.746Z,22.73
2018-08-30T11:59:57.398Z,22.82
2018-08-30T12:02:25.461Z,22.88
2018-08-30T12:04:53.085Z,22.92
2018-08-30T12:07:20.746Z,22.97
2018-08-30T12:09:48.964Z,23.00
2018-08-30T12:12:16.624Z,23.02
2018-08-30T12:14:44.271Z,22.99
2018-08-30T12:17:11.914Z,22.93
2018-08-30T12:19:39.811Z,22.93
2018-08-30T12:22:07.474Z,22.94
2018-08-30T12:24:35.648Z,22.96
2018-08-30T12:27:03.341Z,22.95
2018-08-30T12:29:31.039Z,22.90
2018-08-30T12:31:59.146Z,22.89
2018-08-30T12:34:26.970Z,22.88
2018-08-30T12:36:55.499Z,22.85
2018-08-30T12:39:23.714Z,22.84
2018-08-30T12:41:51.775Z,22.85
2018-08-30T12:44:19.410Z,22.87
2018-08-30T12:46:47.405Z,22.86
2018-08-30T12:49:15.077Z,22.87
2018-08-30T12:51:43.717Z,22.87
2018-08-30T12:54:12.035Z,22.86
2018-08-30T12:56:39.780Z,22.84
2018-08-30T12:59:13.039Z,22.84
2018-08-30T13:01:41.044Z,22.83
2018-08-30T13:04:09.055Z,22.82
2018-08-30T13:06:41.203Z,22.84
2018-08-30T13:09:09.111Z,22.90
2018-08-30T13:11:37.031Z,22.94
2018-08-30T13:14:04.764Z,22.99
2018-08-30T13:16:32.654Z,23.01
2018-08-30T13:19:00.371Z,23.05
2018-08-30T13:21:28.484Z,23.08
2018-08-30T13:23:56.089Z,23.11
2018-08-30T13:26:24.018Z,23.17
2018-08-30T13:28:51.687Z,23.27
2018-08-30T13:31:20.002Z,23.34
2018-08-30T13:33:47.939Z,23.42
2018-08-30T13:36:15.765Z,23.48
2018-08-30T13:38:43.553Z,23.47
2018-08-30T13:41:12.025Z,23.44
2018-08-30T13:43:39.551Z,23.40
2018-08-30T13:46:08.044Z,23.40
2018-08-30T13:48:35.644Z,23.43
2018-08-30T13:51:03.467Z,23.47
2018-08-30T13:53:30.919Z,23.52
2018-08-30T13:55:59.157Z,23.53
2018-08-30T13:58:27.054Z,23.55
2018-08-30T14:00:54.554Z,23.59
2018-08-30T14:03:22.672Z,23.61
2018-08-30T14:05:50.900Z,23.57
2018-08-30T14:08:18.559Z,23.60
2018-08-30T14:10:46.181Z,23.71
2018-08-30T14:13:13.989Z,23.70
2018-08-30T14:15:41.564Z,23.84
2018-08-30T14:18:09.612Z,24.00
2018-08-30T14:20:37.666Z,24.87
2018-08-30T14:23:05.356Z,24.57
2018-08-30T14:25:33.048Z,24.91
2018-08-30T14:28:00.961Z,25.33
2018-08-30T14:30:29.291Z,26.13
2018-08-30T14:32:57.081Z,26.64
2018-08-30T14:35:24.767Z,27.08
2018-08-30T14:37:52.700Z,27.11
2018-08-30T14:40:20.531Z,26.51
2018-08-30T14:42:48.716Z,25.94
2018-08-30T14:45:16.686Z,25.82
2018-08-30T14:47:45.059Z,25.43
2018-08-30T14:50:13.111Z,25.95
2018-08-30T14:52:40.938Z,26.53
2018-08-30T14:55:08.744Z,26.78
2018-08-30T14:57:36.587Z,26.29
2018-08-30T15:00:04.217Z,25.96
2018-08-30T15:02:32.094Z,25.35
2018-08-30T15:04:59.761Z,25.09
2018-08-30T15:07:27.414Z,24.83
2018-08-30T15:09:55.070Z,24.61
2018-08-30T15:12:22.744Z,24.39
2018-08-30T15:14:51.025Z,24.20
2018-08-30T15:17:19.832Z,24.06
2018-08-30T15:19:47.522Z,23.95
2018-08-30T15:22:15.300Z,23.90
2018-08-30T15:24:43.320Z,23.86
2018-08-30T15:27:11.344Z,23.88
2018-08-30T15:29:39.026Z,24.00
2018-08-30T15:32:06.679Z,24.31
2018-08-30T15:34:34.472Z,24.80
2018-08-30T15:37:03.220Z,25.08
2018-08-30T15:39:30.826Z,25.02
2018-08-30T15:41:58.886Z,24.90
2018-08-30T15:44:26.709Z,24.68
2018-08-30T15:46:54.418Z,24.51
2018-08-30T15:49:22.052Z,24.27
2018-08-30T15:51:50.115Z,24.14
2018-08-30T15:54:18.010Z,24.02
2018-08-30T15:56:45.710Z,23.94
2018-08-30T15:59:13.426Z,23.84
2018-08-30T16:01:41.457Z,23.77
2018-08-30T16:04:09.117Z,23.71
2018-08-30T16:06:36.723Z,23.66
2018-08-30T16:09:06.903Z,23.63
2018-08-30T16:11:34.600Z,23.61
2018-08-30T16:14:02.268Z,23.59
2018-08-30T16:16:29.911Z,23.57
2018-08-30T16:18:57.967Z,23.52
2018-08-30T16:21:25.721Z,23.47
2018-08-30T16:23:54.082Z,23.44
2018-08-30T16:26:21.725Z,23.39
2018-08-30T16:28:50.146Z,23.38
2018-08-30T16:31:18.168Z,23.36
2018-08-30T16:33:46.080Z,23.29
2018-08-30T16:36:13.849Z,23.24
2018-08-30T16:38:41.788Z,23.16
2018-08-30T16:41:09.609Z,23.13
2018-08-30T16:43:37.759Z,23.12
2018-08-30T16:46:05.431Z,23.08
2018-08-30T16:48:33.782Z,23.07
2018-08-30T16:51:01.493Z,23.04
2018-08-30T16:53:29.470Z,22.99
2018-08-30T16:55:57.146Z,22.93
2018-08-30T16:58:24.816Z,22.89
2018-08-30T17:00:52.788Z,22.88
2018-08-30T17:03:20.496Z,22.91
2018-08-30T17:05:48.620Z,22.93
2018-08-30T17:08:16.889Z,22.98
2018-08-30T17:10:44.548Z,22.94
2018-08-30T17:13:12.293Z,22.96
2018-08-30T17:15:41.302Z,23.04
2018-08-30T17:18:09.288Z,22.96
2018-08-30T17:20:43.208Z,22.95
2018-08-30T17:23:11.877Z,22.91
2018-08-30T17:25:40.261Z,22.92
2018-08-30T17:28:08.642Z,22.86
2018-08-30T17:30:36.723Z,22.81
2018-08-30T17:33:04.764Z,22.79
2018-08-30T17:35:32.578Z,22.80
2018-08-30T17:38:01.007Z,22.79
2018-08-30T17:40:28.758Z,22.75
2018-08-30T17:42:56.536Z,22.70
2018-08-30T17:45:35.650Z,22.64
2018-08-30T17:48:05.703Z,22.59
2018-08-30T17:50:34.644Z,22.55
2018-08-30T17:53:02.871Z,22.50
2018-08-30T17:55:30.952Z,22.46
2018-08-30T17:57:59.140Z,22.38
2018-08-30T18:00:26.836Z,22.34
2018-08-30T18:02:54.702Z,22.30
2018-08-30T18:05:22.396Z,22.27
2018-08-30T18:07:50.355Z,22.26
2018-08-30T18:10:18.064Z,22.23
2018-08-30T18:12:45.739Z,22.21
2018-08-30T18:15:14.705Z,22.19
2018-08-30T18:17:43.257Z,22.17
2018-08-30T18:20:11.011Z,22.13
2018-08-30T18:22:38.785Z,22.12
2018-08-30T18:25:06.742Z,22.09
2018-08-30T18:27:34.411Z,22.07
2018-08-30T18:30:02.137Z,22.04
2018-08-30T18:32:29.855Z,22.01
2018-08-30T18:34:57.553Z,21.99
2018-08-30T18:37:25.441Z,21.98
2018-08-30T18:39:53.485Z,21.96
2018-08-30T18:42:21.576Z,21.96
2018-08-30T18:44:49.651Z,21.95
2018-08-30T18:47:17.580Z,21.92
2018-08-30T18:49:45.444Z,21.91
2018-08-30T18:52:13.482Z,21.89
2018-08-30T18:54:41.547Z,21.87
2018-08-30T18:57:09.868Z,21.87
2018-08-30T18:59:37.631Z,21.83
2018-08-30T19:02:05.357Z,21.81
2018-08-30T19:04:33.058Z,21.79
2018-08-30T19:07:00.988Z,21.76
2018-08-30T19:09:29.431Z,21.74
2018-08-30T19:11:57.369Z,21.72
2018-08-30T19:14:25.099Z,21.72
2018-08-30T19:16:58.478Z,21.70
2018-08-30T19:19:27.053Z,21.70
2018-08-30T19:21:55.147Z,21.67
2018-08-30T19:24:28.830Z,21.67
2018-08-30T19:26:56.837Z,21.65
2018-08-30T19:29:25.039Z,21.64
2018-08-30T19:31:52.842Z,21.63
2018-08-30T19:34:21.180Z,21.61
2018-08-30T19:36:49.399Z,21.61
2018-08-30T19:39:17.264Z,21.60
2018-08-30T19:41:45.624Z,21.58
2018-08-30T19:44:14.006Z,21.57
2018-08-30T19:46:42.102Z,21.57
2018-08-30T19:49:10.065Z,21.56
2018-08-30T19:51:38.432Z,21.55
2018-08-30T19:54:07.180Z,21.53
2018-08-30T19:56:35.729Z,21.51
2018-08-30T19:59:04.061Z,21.48
2018-08-30T20:01:32.244Z,21.46
2018-08-30T20:04:00.686Z,21.44
2018-08-30T20:06:28.500Z,21.43
2018-08-30T20:08:57.593Z,21.42
2018-08-30T20:11:25.946Z,21.39
2018-08-30T20:13:54.398Z,21.39
2018-08-30T20:16:22.569Z,21.36
2018-08-30T20:18:50.361Z,21.36
2018-08-30T20:21:18.648Z,21.34
2018-08-30T20:23:46.934Z,21.35
2018-08-30T20:26:14.866Z,21.32
2018-08-30T20:28:42.736Z,21.31
2018-08-30T20:31:11.065Z,21.31
2018-08-30T20:33:39.711Z,21.29
2018-08-30T20:36:07.508Z,21.29
2018-08-30T20:38:35.867Z,21.27
2018-08-30T20:41:03.716Z,21.26
2018-08-30T20:43:31.807Z,21.26
2018-08-30T20:46:00.177Z,21.27
2018-08-30T20:48:28.157Z,21.27
2018-08-30T20:50:57.071Z,21.26
2018-08-30T20:53:25.188Z,21.26
2018-08-30T20:55:53.624Z,21.24
2018-08-30T20:58:21.911Z,21.23
2018-08-30T21:00:50.151Z,21.21
2018-08-30T21:03:18.424Z,21.22
2018-08-30T21:05:46.722Z,21.21
2018-08-30T21:08:15.247Z,21.20
2018-08-30T21:10:43.428Z,21.20
2018-08-30T21:13:11.415Z,21.19
2018-08-30T21:15:39.724Z,21.18
2018-08-30T21:18:09.220Z,21.17
2018-08-30T21:20:37.505Z,21.18
2018-08-30T21:23:06.184Z,21.17
2018-08-30T21:25:34.429Z,21.17
2018-08-30T21:28:02.329Z,21.15
2018-08-30T21:30:30.283Z,21.19
2018-08-30T21:32:59.227Z,21.19
2018-08-30T21:35:27.340Z,21.22
2018-08-30T21:37:55.201Z,21.23
2018-08-30T21:40:23.059Z,21.24
2018-08-30T21:42:51.355Z,21.24
2018-08-30T21:45:19.347Z,21.22
2018-08-30T21:47:47.676Z,21.20
2018-08-30T21:50:15.616Z,21.17
2018-08-30T21:52:43.599Z,21.16
2018-08-30T21:55:11.576Z,21.15
2018-08-30T21:57:39.492Z,21.15
2018-08-30T22:00:07.444Z,21.12
2018-08-30T22:02:35.872Z,21.13
2018-08-30T22:05:04.039Z,21.11
2018-08-30T22:07:32.907Z,21.11
2018-08-30T22:10:01.763Z,21.10
2018-08-30T22:12:29.712Z,21.09
2018-08-30T22:14:58.212Z,21.08
2018-08-30T22:17:26.429Z,21.08
2018-08-30T22:19:54.546Z,21.07
2018-08-30T22:22:22.605Z,21.07
2018-08-30T22:24:50.877Z,21.12
2018-08-30T22:27:18.960Z,21.11
2018-08-30T22:29:46.874Z,21.09
2018-08-30T22:32:14.990Z,21.07
2018-08-30T22:34:43.300Z,21.06
2018-08-30T22:37:11.125Z,21.05
2018-08-30T22:39:39.516Z,21.05
2018-08-30T22:42:07.874Z,21.04
2018-08-30T22:44:36.388Z,21.05
2018-08-30T22:47:04.512Z,21.04
2018-08-30T22:49:32.221Z,21.04
2018-08-30T22:52:00.518Z,21.03
2018-08-30T22:54:28.321Z,21.02
2018-08-30T22:56:56.589Z,21.02
2018-08-30T22:59:24.439Z,21.00
2018-08-30T23:01:52.226Z,21.00
2018-08-30T23:04:20.049Z,21.00
2018-08-30T23:06:48.736Z,21.00
2018-08-30T23:09:16.514Z,21.01
2018-08-30T23:11:44.295Z,20.99
2018-08-30T23:14:12.423Z,20.98
2018-08-30T23:16:41.168Z,20.99
2018-08-30T23:19:08.975Z,20.99
2018-08-30T23:21:37.188Z,21.00
2018-08-30T23:24:05.358Z,20.99
2018-08-30T23:26:33.405Z,20.98
2018-08-30T23:29:01.153Z,20.98
2018-08-30T23:31:29.154Z,20.97
2018-08-30T23:33:57.099Z,20.96
2018-08-30T23:36:24.836Z,20.96
2018-08-30T23:38:53.041Z,20.96
2018-08-30T23:41:20.713Z,20.95
2018-08-30T23:43:48.463Z,20.94
2018-08-30T23:46:16.137Z,20.93
2018-08-30T23:48:44.467Z,20.93
2018-08-30T23:51:12.175Z,20.91
2018-08-30T23:53:39.821Z,20.91
2018-08-30T23:56:07.570Z,20.92
2018-08-30T23:58:46.446Z,20.89
